createdAt,value
2017-12-10T00:00:05.078Z,0
2017-12-10T00:01:06.963Z,0
2017-12-10T00:02:08.848Z,0
2017-12-10T00:03:10.721Z,0
2017-12-10T00:04:12.548Z,0
2017-12-10T00:05:14.361Z,0
2017-12-10T00:06:16.232Z,0
2017-12-10T00:07:18.115Z,0
2017-12-10T00:08:19.988Z,0
2017-12-10T00:09:34.145Z,0
2017-12-10T00:10:36.017Z,0
2017-12-10T00:11:37.902Z,0
2017-12-10T00:12:39.773Z,0
2017-12-10T00:13:41.587Z,0
2017-12-10T00:14:43.410Z,0
2017-12-10T00:15:45.294Z,0
2017-12-10T00:16:47.164Z,0
2017-12-10T00:17:49.048Z,0
2017-12-10T00:19:03.195Z,0
2017-12-10T00:20:05.081Z,0
2017-12-10T00:21:06.965Z,0
2017-12-10T00:22:08.836Z,0
2017-12-10T00:23:10.661Z,0
2017-12-10T00:24:12.473Z,0
2017-12-10T00:25:14.355Z,0
2017-12-10T00:26:16.237Z,0
2017-12-10T00:27:18.125Z,0
2017-12-10T00:28:32.272Z,0
2017-12-10T00:29:34.147Z,0
2017-12-10T00:30:36.029Z,0
2017-12-10T00:31:37.900Z,0
2017-12-10T00:32:39.713Z,0
2017-12-10T00:33:41.538Z,0
2017-12-10T00:34:43.470Z,0
2017-12-10T00:35:45.280Z,0
2017-12-10T00:36:47.163Z,0
2017-12-10T00:38:01.358Z,0
2017-12-10T00:39:03.242Z,0
2017-12-10T00:40:05.125Z,0
2017-12-10T00:41:06.998Z,0
2017-12-10T00:42:08.824Z,0
2017-12-10T00:43:10.640Z,0
2017-12-10T00:44:12.522Z,0
2017-12-10T00:45:14.397Z,0
2017-12-10T00:46:16.283Z,0
2017-12-10T00:47:30.438Z,0
2017-12-10T00:48:32.314Z,0
2017-12-10T00:49:34.186Z,0
2017-12-10T00:50:36.070Z,0
2017-12-10T00:51:37.893Z,0
2017-12-10T00:52:39.704Z,0
2017-12-10T00:53:41.587Z,0
2017-12-10T00:54:43.472Z,0
2017-12-10T00:55:45.358Z,0
2017-12-10T00:56:59.516Z,0
2017-12-10T00:58:01.409Z,0
2017-12-10T00:59:03.276Z,0
2017-12-10T01:00:05.162Z,0
2017-12-10T01:01:06.990Z,0
2017-12-10T01:02:08.799Z,0
2017-12-10T01:03:10.671Z,0
2017-12-10T01:04:12.553Z,0
2017-12-10T01:05:14.427Z,0
2017-12-10T01:06:28.583Z,0
2017-12-10T01:07:30.467Z,0
2017-12-10T01:08:32.345Z,0
2017-12-10T01:09:34.209Z,0
2017-12-10T01:10:36.033Z,0
2017-12-10T01:11:37.882Z,0
2017-12-10T01:12:39.705Z,0
2017-12-10T01:13:41.577Z,0
2017-12-10T01:14:43.459Z,0
2017-12-10T01:15:57.617Z,0
2017-12-10T01:16:59.489Z,0
2017-12-10T01:18:01.366Z,0
2017-12-10T01:19:03.249Z,0
2017-12-10T01:20:05.071Z,0
2017-12-10T01:21:06.883Z,0
2017-12-10T01:22:08.765Z,0
2017-12-10T01:23:10.637Z,0
2017-12-10T01:24:12.517Z,0
2017-12-10T01:25:26.674Z,0
2017-12-10T01:26:28.558Z,0
2017-12-10T01:27:30.431Z,0
2017-12-10T01:28:32.314Z,0
2017-12-10T01:29:34.126Z,0
2017-12-10T01:30:35.948Z,0
2017-12-10T01:31:37.829Z,0
2017-12-10T01:32:39.710Z,0
2017-12-10T01:33:41.585Z,0
2017-12-10T01:34:55.743Z,0
2017-12-10T01:35:57.636Z,0
2017-12-10T01:36:59.500Z,0
2017-12-10T01:38:01.375Z,0
2017-12-10T01:39:03.190Z,0
2017-12-10T01:40:05.015Z,0
2017-12-10T01:41:06.900Z,0
2017-12-10T01:42:08.773Z,0
2017-12-10T01:43:10.658Z,0
2017-12-10T01:44:24.863Z,0
2017-12-10T01:45:26.736Z,0
2017-12-10T01:46:28.622Z,0
2017-12-10T01:47:30.511Z,0
2017-12-10T01:48:32.324Z,0
2017-12-10T01:49:34.148Z,0
2017-12-10T01:50:36.021Z,0
2017-12-10T01:51:37.903Z,0
2017-12-10T01:52:39.787Z,0
2017-12-10T01:53:53.937Z,0
2017-12-10T01:54:55.820Z,0
2017-12-10T01:55:57.703Z,0
2017-12-10T01:56:59.575Z,0
2017-12-10T01:58:01.400Z,0
2017-12-10T01:59:03.223Z,0
2017-12-10T02:00:05.105Z,0
2017-12-10T02:01:06.988Z,0
2017-12-10T02:02:08.861Z,0
2017-12-10T02:03:23.067Z,0
2017-12-10T02:04:24.953Z,0
2017-12-10T02:05:26.827Z,0
2017-12-10T02:06:28.701Z,0
2017-12-10T02:07:30.527Z,0
2017-12-10T02:08:32.348Z,0
2017-12-10T02:09:34.219Z,0
2017-12-10T02:10:36.101Z,0
2017-12-10T02:11:37.987Z,0
2017-12-10T02:12:52.131Z,0
2017-12-10T02:13:54.012Z,0
2017-12-10T02:14:55.894Z,0
2017-12-10T02:15:57.769Z,0
2017-12-10T02:16:59.592Z,0
2017-12-10T02:18:01.414Z,0
2017-12-10T02:19:03.297Z,0
2017-12-10T02:20:05.179Z,0
2017-12-10T02:21:07.066Z,0
2017-12-10T02:22:21.211Z,0
2017-12-10T02:23:23.087Z,0
2017-12-10T02:24:24.971Z,0
2017-12-10T02:25:26.841Z,0
2017-12-10T02:26:28.669Z,0
2017-12-10T02:27:30.475Z,0
2017-12-10T02:28:32.359Z,0
2017-12-10T02:29:34.232Z,0
2017-12-10T02:30:36.116Z,0
2017-12-10T02:31:50.273Z,0
2017-12-10T02:32:52.145Z,0
2017-12-10T02:33:54.017Z,0
2017-12-10T02:34:55.900Z,0
2017-12-10T02:35:57.725Z,0
2017-12-10T02:36:59.534Z,0
2017-12-10T02:38:01.418Z,0
2017-12-10T02:39:03.290Z,0
2017-12-10T02:40:05.173Z,0
2017-12-10T02:41:19.330Z,0
2017-12-10T02:42:21.213Z,0
2017-12-10T02:43:23.086Z,0
2017-12-10T02:44:24.964Z,0
2017-12-10T02:45:26.777Z,0
2017-12-10T02:46:28.589Z,0
2017-12-10T02:47:30.470Z,0
2017-12-10T02:48:32.353Z,0
2017-12-10T02:49:34.236Z,0
2017-12-10T02:50:48.394Z,0
2017-12-10T02:51:50.277Z,0
2017-12-10T02:52:52.159Z,0
2017-12-10T02:53:54.043Z,0
2017-12-10T02:54:55.868Z,0
2017-12-10T02:55:57.679Z,0
2017-12-10T02:56:59.563Z,0
2017-12-10T02:58:01.445Z,0
2017-12-10T02:59:03.325Z,0
2017-12-10T03:00:17.479Z,0
2017-12-10T03:01:19.360Z,0
2017-12-10T03:02:21.242Z,0
2017-12-10T03:03:23.118Z,0
2017-12-10T03:04:24.921Z,0
2017-12-10T03:05:26.743Z,0
2017-12-10T03:06:28.626Z,0
2017-12-10T03:07:30.496Z,0
2017-12-10T03:08:32.374Z,0
2017-12-10T03:09:46.528Z,0
2017-12-10T03:10:48.408Z,0
2017-12-10T03:11:50.288Z,0
2017-12-10T03:12:52.181Z,0
2017-12-10T03:13:53.988Z,0
2017-12-10T03:14:55.810Z,0
2017-12-10T03:15:57.690Z,0
2017-12-10T03:16:59.569Z,0
2017-12-10T03:18:01.450Z,0
2017-12-10T03:19:15.653Z,0
2017-12-10T03:20:17.536Z,0
2017-12-10T03:21:19.421Z,0
2017-12-10T03:22:21.295Z,0
2017-12-10T03:23:23.116Z,0
2017-12-10T03:24:24.926Z,0
2017-12-10T03:25:26.811Z,0
2017-12-10T03:26:28.696Z,0
2017-12-10T03:27:30.566Z,0
2017-12-10T03:28:44.719Z,0
2017-12-10T03:29:46.598Z,0
2017-12-10T03:30:48.471Z,0
2017-12-10T03:31:50.340Z,0
2017-12-10T03:32:52.163Z,0
2017-12-10T03:33:53.972Z,0
2017-12-10T03:34:55.845Z,0
2017-12-10T03:35:57.728Z,0
2017-12-10T03:36:59.599Z,0
2017-12-10T03:38:13.753Z,0
2017-12-10T03:39:15.635Z,0
2017-12-10T03:40:17.521Z,0
2017-12-10T03:41:19.392Z,0
2017-12-10T03:42:21.214Z,0
2017-12-10T03:43:23.025Z,0
2017-12-10T03:44:24.907Z,0
2017-12-10T03:45:26.793Z,0
2017-12-10T03:46:28.664Z,0
2017-12-10T03:47:42.806Z,0
2017-12-10T03:48:44.676Z,0
2017-12-10T03:49:46.559Z,0
2017-12-10T03:50:48.446Z,0
2017-12-10T03:51:50.251Z,0
2017-12-10T03:52:52.072Z,0
2017-12-10T03:53:53.957Z,0
2017-12-10T03:54:55.831Z,0
2017-12-10T03:55:57.706Z,0
2017-12-10T03:57:11.900Z,0
2017-12-10T03:58:13.783Z,0
2017-12-10T03:59:15.666Z,0
2017-12-10T04:00:17.550Z,0
2017-12-10T04:01:19.361Z,0
2017-12-10T04:02:21.182Z,0
2017-12-10T04:03:23.067Z,0
2017-12-10T04:04:24.939Z,0
2017-12-10T04:05:26.822Z,0
2017-12-10T04:06:40.967Z,0
2017-12-10T04:07:42.849Z,0
2017-12-10T04:08:44.731Z,0
2017-12-10T04:09:46.616Z,0
2017-12-10T04:10:48.438Z,0
2017-12-10T04:11:50.252Z,0
2017-12-10T04:12:52.119Z,0
2017-12-10T04:13:53.994Z,0
2017-12-10T04:14:55.874Z,0
2017-12-10T04:16:10.078Z,0
2017-12-10T04:17:11.948Z,0
2017-12-10T04:18:13.830Z,0
2017-12-10T04:19:15.701Z,0
2017-12-10T04:20:17.513Z,0
2017-12-10T04:21:19.333Z,0
2017-12-10T04:22:21.216Z,0
2017-12-10T04:23:23.086Z,0
2017-12-10T04:24:24.971Z,0
2017-12-10T04:25:39.109Z,0
2017-12-10T04:26:40.992Z,0
2017-12-10T04:27:42.864Z,0
2017-12-10T04:28:44.735Z,0
2017-12-10T04:29:46.558Z,0
2017-12-10T04:30:48.367Z,0
2017-12-10T04:31:50.247Z,0
2017-12-10T04:32:52.117Z,0
2017-12-10T04:33:53.987Z,0
2017-12-10T04:35:08.145Z,0
2017-12-10T04:36:10.017Z,0
2017-12-10T04:37:11.900Z,0
2017-12-10T04:38:13.770Z,0
2017-12-10T04:39:15.591Z,0
2017-12-10T04:40:17.398Z,0
2017-12-10T04:41:19.279Z,0
2017-12-10T04:42:21.149Z,0
2017-12-10T04:43:23.030Z,0
2017-12-10T04:44:37.182Z,0
2017-12-10T04:45:39.068Z,0
2017-12-10T04:46:40.940Z,0
2017-12-10T04:47:42.811Z,0
2017-12-10T04:48:44.630Z,0
2017-12-10T04:49:46.449Z,0
2017-12-10T04:50:48.334Z,0
2017-12-10T04:51:50.212Z,0
2017-12-10T04:52:52.079Z,0
2017-12-10T04:54:06.232Z,0
2017-12-10T04:55:08.114Z,0
2017-12-10T04:56:09.994Z,0
2017-12-10T04:57:11.879Z,0
2017-12-10T04:58:13.701Z,0
2017-12-10T04:59:15.521Z,0
2017-12-10T05:00:17.393Z,0
2017-12-10T05:01:19.334Z,0
2017-12-10T05:02:21.331Z,0
2017-12-10T05:03:35.655Z,0
2017-12-10T05:04:37.678Z,0
2017-12-10T05:05:39.694Z,0
2017-12-10T05:06:41.688Z,0
2017-12-10T05:07:43.609Z,0
2017-12-10T05:08:45.512Z,0
2017-12-10T05:09:47.488Z,0
2017-12-10T05:10:49.508Z,0
2017-12-10T05:11:51.555Z,0
2017-12-10T05:13:05.924Z,0
2017-12-10T05:14:07.923Z,0
2017-12-10T05:15:09.897Z,0
2017-12-10T05:16:11.880Z,0
2017-12-10T05:17:13.814Z,0
2017-12-10T05:18:15.749Z,0
2017-12-10T05:19:17.735Z,0
2017-12-10T05:20:19.607Z,0
2017-12-10T05:21:21.486Z,0
2017-12-10T05:22:35.641Z,0
2017-12-10T05:23:37.512Z,0
2017-12-10T05:24:39.392Z,0
2017-12-10T05:25:41.272Z,0
2017-12-10T05:26:43.091Z,0
2017-12-10T05:27:44.911Z,0
2017-12-10T05:28:46.792Z,0
2017-12-10T05:29:48.670Z,0
2017-12-10T05:30:50.539Z,0
2017-12-10T05:32:04.680Z,0
2017-12-10T05:33:06.564Z,0
2017-12-10T05:34:08.456Z,0
2017-12-10T05:35:10.330Z,0
2017-12-10T05:36:12.152Z,0
2017-12-10T05:37:13.972Z,0
2017-12-10T05:38:15.844Z,0
2017-12-10T05:39:17.724Z,0
2017-12-10T05:40:19.604Z,0
2017-12-10T05:41:33.758Z,0
2017-12-10T05:42:35.635Z,0
2017-12-10T05:43:37.516Z,0
2017-12-10T05:44:39.384Z,0
2017-12-10T05:45:41.202Z,0
2017-12-10T05:46:43.022Z,0
2017-12-10T05:47:44.902Z,0
2017-12-10T05:48:46.774Z,0
2017-12-10T05:49:48.640Z,0
2017-12-10T05:51:02.793Z,0
2017-12-10T05:52:04.672Z,0
2017-12-10T05:53:06.550Z,0
2017-12-10T05:54:08.433Z,0
2017-12-10T05:55:10.253Z,0
2017-12-10T05:56:12.073Z,0
2017-12-10T05:57:13.942Z,0
2017-12-10T05:58:15.821Z,0
2017-12-10T05:59:17.703Z,0
2017-12-10T06:00:31.852Z,0
2017-12-10T06:01:33.717Z,0
2017-12-10T06:02:35.589Z,0
2017-12-10T06:03:37.468Z,0
2017-12-10T06:04:39.289Z,0
2017-12-10T06:05:41.108Z,0
2017-12-10T06:06:42.990Z,0
2017-12-10T06:07:44.858Z,0
2017-12-10T06:08:46.739Z,0
2017-12-10T06:10:00.893Z,0
2017-12-10T06:11:02.763Z,0
2017-12-10T06:12:04.635Z,0
2017-12-10T06:13:06.519Z,0
2017-12-10T06:14:08.324Z,0
2017-12-10T06:15:10.133Z,0
2017-12-10T06:16:12.002Z,0
2017-12-10T06:17:13.882Z,4
2017-12-10T06:18:15.755Z,4
2017-12-10T06:19:29.895Z,0
2017-12-10T06:20:31.778Z,4
2017-12-10T06:21:33.659Z,4
2017-12-10T06:22:35.532Z,4
2017-12-10T06:23:37.352Z,4
2017-12-10T06:24:39.173Z,4
2017-12-10T06:25:41.056Z,8
2017-12-10T06:26:42.933Z,8
2017-12-10T06:27:44.853Z,8
2017-12-10T06:28:58.944Z,12
2017-12-10T06:30:00.824Z,12
2017-12-10T06:31:02.699Z,16
2017-12-10T06:32:04.567Z,16
2017-12-10T06:33:06.388Z,20
2017-12-10T06:34:08.208Z,24
2017-12-10T06:35:10.088Z,28
2017-12-10T06:36:11.973Z,32
2017-12-10T06:37:13.853Z,36
2017-12-10T06:38:28.010Z,44
2017-12-10T06:39:29.882Z,52
2017-12-10T06:40:31.765Z,60
2017-12-10T06:41:33.637Z,64
2017-12-10T06:42:35.461Z,72
2017-12-10T06:43:37.333Z,84
2017-12-10T06:44:39.144Z,96
2017-12-10T06:45:41.016Z,104
2017-12-10T06:46:42.899Z,120
2017-12-10T06:47:57.058Z,136
2017-12-10T06:48:58.935Z,156
2017-12-10T06:50:00.806Z,168
2017-12-10T06:51:02.691Z,188
2017-12-10T06:52:04.514Z,208
2017-12-10T06:53:06.336Z,228
2017-12-10T06:54:08.223Z,248
2017-12-10T06:55:10.096Z,276
2017-12-10T06:56:11.969Z,300
2017-12-10T06:57:26.126Z,328
2017-12-10T06:58:28.001Z,352
2017-12-10T06:59:29.874Z,380
2017-12-10T07:00:31.792Z,412
2017-12-10T07:01:33.570Z,440
2017-12-10T07:02:35.382Z,472
2017-12-10T07:03:37.265Z,508
2017-12-10T07:04:39.141Z,544
2017-12-10T07:05:41.024Z,580
2017-12-10T07:06:55.171Z,624
2017-12-10T07:07:57.042Z,660
2017-12-10T07:08:58.923Z,696
2017-12-10T07:10:00.795Z,736
2017-12-10T07:11:02.619Z,772
2017-12-10T07:12:04.443Z,812
2017-12-10T07:13:06.328Z,852
2017-12-10T07:14:08.214Z,900
2017-12-10T07:15:10.098Z,960
2017-12-10T07:16:24.259Z,1036
2017-12-10T07:17:26.135Z,1096
2017-12-10T07:18:28.025Z,1144
2017-12-10T07:19:29.904Z,1184
2017-12-10T07:20:31.711Z,1220
2017-12-10T07:21:33.536Z,1252
2017-12-10T07:22:35.420Z,1296
2017-12-10T07:23:37.287Z,1332
2017-12-10T07:24:39.174Z,1372
2017-12-10T07:25:53.334Z,1436
2017-12-10T07:26:55.209Z,1476
2017-12-10T07:27:57.094Z,1548
2017-12-10T07:28:58.973Z,1620
2017-12-10T07:30:00.800Z,1680
2017-12-10T07:31:02.611Z,1740
2017-12-10T07:32:04.489Z,1784
2017-12-10T07:33:06.366Z,1848
2017-12-10T07:34:08.241Z,1868
2017-12-10T07:35:22.466Z,1896
2017-12-10T07:36:24.331Z,1868
2017-12-10T07:37:26.219Z,1908
2017-12-10T07:38:28.097Z,1932
2017-12-10T07:39:29.911Z,1924
2017-12-10T07:40:31.724Z,1952
2017-12-10T07:41:33.640Z,2004
2017-12-10T07:42:35.545Z,2112
2017-12-10T07:43:37.444Z,2080
2017-12-10T07:44:51.594Z,2008
2017-12-10T07:45:53.468Z,2012
2017-12-10T07:46:55.356Z,2072
2017-12-10T07:47:57.236Z,2104
2017-12-10T07:48:59.062Z,2112
2017-12-10T07:50:00.893Z,2128
2017-12-10T07:51:02.778Z,2140
2017-12-10T07:52:04.944Z,2160
2017-12-10T07:53:06.781Z,2176
2017-12-10T07:54:20.980Z,2176
2017-12-10T07:55:22.856Z,2192
2017-12-10T07:56:24.746Z,2180
2017-12-10T07:57:26.624Z,2324
2017-12-10T07:58:28.441Z,2440
2017-12-10T07:59:30.257Z,2572
2017-12-10T08:00:32.258Z,2520
2017-12-10T08:01:34.122Z,2492
2017-12-10T08:02:35.989Z,2536
2017-12-10T08:03:50.138Z,2596
2017-12-10T08:04:52.026Z,2576
2017-12-10T08:05:53.921Z,2580
2017-12-10T08:06:55.818Z,2652
2017-12-10T08:07:57.646Z,2656
2017-12-10T08:08:59.472Z,2696
2017-12-10T08:10:01.365Z,2720
2017-12-10T08:11:03.230Z,3000
2017-12-10T08:12:05.112Z,3568
2017-12-10T08:13:19.279Z,2960
2017-12-10T08:14:21.147Z,2868
2017-12-10T08:15:23.033Z,2772
2017-12-10T08:16:24.907Z,2664
2017-12-10T08:17:26.733Z,2620
2017-12-10T08:18:28.561Z,2624
2017-12-10T08:19:30.438Z,2700
2017-12-10T08:20:32.329Z,2704
2017-12-10T08:21:34.217Z,2680
2017-12-10T08:22:48.361Z,2696
2017-12-10T08:23:50.264Z,2744
2017-12-10T08:24:52.148Z,2740
2017-12-10T08:25:54.035Z,2816
2017-12-10T08:26:55.861Z,2800
2017-12-10T08:27:57.688Z,2784
2017-12-10T08:28:59.574Z,2780
2017-12-10T08:30:01.450Z,2824
2017-12-10T08:31:03.338Z,2824
2017-12-10T08:32:17.500Z,2812
2017-12-10T08:33:19.376Z,2832
2017-12-10T08:34:21.264Z,2852
2017-12-10T08:35:23.142Z,2876
2017-12-10T08:36:24.975Z,2912
2017-12-10T08:37:26.793Z,2956
2017-12-10T08:38:28.685Z,3000
2017-12-10T08:39:30.563Z,3048
2017-12-10T08:40:32.450Z,3112
2017-12-10T08:41:46.598Z,3168
2017-12-10T08:42:48.503Z,3256
2017-12-10T08:43:50.368Z,3296
2017-12-10T08:44:52.247Z,3328
2017-12-10T08:45:54.073Z,3300
2017-12-10T08:46:55.900Z,3284
2017-12-10T08:47:57.788Z,3336
2017-12-10T08:48:59.666Z,3392
2017-12-10T08:50:01.542Z,3444
2017-12-10T08:51:15.773Z,3396
2017-12-10T08:52:17.651Z,3404
2017-12-10T08:53:19.528Z,3428
2017-12-10T08:54:21.415Z,3572
2017-12-10T08:55:23.359Z,3332
2017-12-10T08:56:25.191Z,3116
2017-12-10T08:57:27.020Z,2964
2017-12-10T08:58:28.897Z,2952
2017-12-10T08:59:30.783Z,3244
2017-12-10T09:00:44.942Z,3476
2017-12-10T09:01:46.817Z,3696
2017-12-10T09:02:48.705Z,4060
2017-12-10T09:03:50.584Z,4356
2017-12-10T09:04:52.420Z,4140
2017-12-10T09:05:54.229Z,3952
2017-12-10T09:06:56.114Z,3940
2017-12-10T09:07:58.003Z,4160
2017-12-10T09:08:59.891Z,3960
2017-12-10T09:10:14.052Z,3608
2017-12-10T09:11:15.928Z,3504
2017-12-10T09:12:17.815Z,3512
2017-12-10T09:13:19.703Z,3828
2017-12-10T09:14:21.920Z,3880
2017-12-10T09:15:23.722Z,3860
2017-12-10T09:16:25.624Z,3736
2017-12-10T09:17:27.499Z,3808
2017-12-10T09:18:29.413Z,3956
2017-12-10T09:19:43.614Z,3992
2017-12-10T09:20:45.814Z,3928
2017-12-10T09:21:47.731Z,3704
2017-12-10T09:22:49.631Z,3772
2017-12-10T09:23:51.477Z,3856
2017-12-10T09:24:53.293Z,3792
2017-12-10T09:25:55.185Z,3740
2017-12-10T09:26:57.096Z,3548
2017-12-10T09:27:58.982Z,3456
2017-12-10T09:29:13.142Z,3656
2017-12-10T09:30:15.021Z,3752
2017-12-10T09:31:16.920Z,3644
2017-12-10T09:32:19.117Z,3500
2017-12-10T09:33:20.941Z,3484
2017-12-10T09:34:22.795Z,3520
2017-12-10T09:35:24.682Z,3568
2017-12-10T09:36:26.601Z,3620
2017-12-10T09:37:28.434Z,3656
2017-12-10T09:38:42.614Z,3644
2017-12-10T09:39:44.472Z,3636
2017-12-10T09:40:46.360Z,3556
2017-12-10T09:41:48.341Z,3588
2017-12-10T09:42:50.123Z,3648
2017-12-10T09:43:51.950Z,3720
2017-12-10T09:44:54.377Z,3836
2017-12-10T09:45:56.243Z,3920
2017-12-10T09:46:58.146Z,3884
2017-12-10T09:48:12.306Z,3744
2017-12-10T09:49:14.143Z,3620
2017-12-10T09:50:16.042Z,3500
2017-12-10T09:51:17.917Z,3448
2017-12-10T09:52:20.114Z,3524
2017-12-10T09:53:22.292Z,3656
2017-12-10T09:54:24.100Z,3676
2017-12-10T09:55:25.990Z,3720
2017-12-10T09:56:27.892Z,3696
2017-12-10T09:57:42.636Z,3652
2017-12-10T09:58:44.551Z,3728
2017-12-10T09:59:46.428Z,3556
2017-12-10T10:00:48.307Z,3540
2017-12-10T10:01:50.135Z,3508
2017-12-10T10:02:51.961Z,3512
2017-12-10T10:03:53.857Z,3524
2017-12-10T10:04:55.774Z,3504
2017-12-10T10:05:57.621Z,3504
2017-12-10T10:07:11.832Z,3516
2017-12-10T10:08:14.008Z,3548
2017-12-10T10:09:15.881Z,3572
2017-12-10T10:10:17.758Z,3608
2017-12-10T10:11:19.585Z,3640
2017-12-10T10:12:21.401Z,3652
2017-12-10T10:13:23.301Z,3668
2017-12-10T10:14:25.155Z,3692
2017-12-10T10:15:27.041Z,3720
2017-12-10T10:16:41.200Z,3724
2017-12-10T10:17:43.697Z,3692
2017-12-10T10:18:46.572Z,3648
2017-12-10T10:19:49.979Z,3660
2017-12-10T10:20:52.620Z,3732
2017-12-10T10:21:54.455Z,3820
2017-12-10T10:22:56.326Z,3888
2017-12-10T10:23:58.217Z,3944
2017-12-10T10:25:00.093Z,3968
2017-12-10T10:26:14.444Z,3908
2017-12-10T10:27:17.233Z,3872
2017-12-10T10:28:19.958Z,3860
2017-12-10T10:29:22.703Z,3844
2017-12-10T10:30:25.614Z,3864
2017-12-10T10:31:28.582Z,3940
2017-12-10T10:32:31.450Z,4016
2017-12-10T10:33:34.377Z,4120
2017-12-10T10:34:37.598Z,4252
2017-12-10T10:35:53.776Z,4456
2017-12-10T10:36:56.981Z,4632
2017-12-10T10:37:59.942Z,4820
2017-12-10T10:39:02.644Z,5016
2017-12-10T10:40:05.571Z,5228
2017-12-10T10:41:08.207Z,5508
2017-12-10T10:42:10.255Z,5800
2017-12-10T10:43:12.135Z,6064
2017-12-10T10:44:14.021Z,6256
2017-12-10T10:45:28.171Z,6352
2017-12-10T10:46:30.048Z,6332
2017-12-10T10:47:31.936Z,6396
2017-12-10T10:48:33.815Z,6508
2017-12-10T10:49:36.368Z,6692
2017-12-10T10:50:39.313Z,6864
2017-12-10T10:51:42.332Z,6948
2017-12-10T10:52:45.286Z,6996
2017-12-10T10:53:48.808Z,6860
2017-12-10T10:55:04.173Z,6528
2017-12-10T10:56:07.503Z,6260
2017-12-10T10:57:10.228Z,6020
2017-12-10T10:58:12.949Z,5892
2017-12-10T10:59:15.559Z,5792
2017-12-10T11:00:17.579Z,5756
2017-12-10T11:01:19.464Z,5828
2017-12-10T11:02:21.352Z,6008
2017-12-10T11:03:23.582Z,6244
2017-12-10T11:04:37.736Z,6496
2017-12-10T11:05:39.612Z,6636
2017-12-10T11:06:41.501Z,6724
2017-12-10T11:07:43.380Z,6880
2017-12-10T11:08:45.194Z,7092
2017-12-10T11:09:47.009Z,7220
2017-12-10T11:10:48.909Z,7256
2017-12-10T11:11:50.781Z,7280
2017-12-10T11:12:52.660Z,7320
2017-12-10T11:14:06.861Z,7276
2017-12-10T11:15:08.738Z,7112
2017-12-10T11:16:10.623Z,6900
2017-12-10T11:17:12.499Z,6580
2017-12-10T11:18:14.322Z,6308
2017-12-10T11:19:16.143Z,6020
2017-12-10T11:20:18.017Z,5752
2017-12-10T11:21:19.898Z,5524
2017-12-10T11:22:21.779Z,5300
2017-12-10T11:23:35.942Z,5040
2017-12-10T11:24:37.808Z,4852
2017-12-10T11:25:39.691Z,4728
2017-12-10T11:26:41.568Z,4620
2017-12-10T11:27:43.396Z,4536
2017-12-10T11:28:45.198Z,4492
2017-12-10T11:29:47.074Z,4520
2017-12-10T11:30:48.956Z,4560
2017-12-10T11:31:50.860Z,4732
2017-12-10T11:33:05.024Z,5144
2017-12-10T11:34:06.907Z,5572
2017-12-10T11:35:08.796Z,6032
2017-12-10T11:36:10.686Z,6516
2017-12-10T11:37:12.624Z,6916
2017-12-10T11:38:14.405Z,7296
2017-12-10T11:39:16.288Z,7664
2017-12-10T11:40:18.165Z,7944
2017-12-10T11:41:20.049Z,8156
2017-12-10T11:42:34.652Z,8040
2017-12-10T11:43:36.522Z,7928
2017-12-10T11:44:38.593Z,7892
2017-12-10T11:45:40.449Z,7988
2017-12-10T11:46:42.283Z,7980
2017-12-10T11:47:44.097Z,7920
2017-12-10T11:48:45.979Z,7740
2017-12-10T11:49:47.858Z,7516
2017-12-10T11:50:49.740Z,7316
2017-12-10T11:52:03.897Z,6892
2017-12-10T11:53:05.777Z,6380
2017-12-10T11:54:07.664Z,5976
2017-12-10T11:55:09.550Z,5736
2017-12-10T11:56:11.367Z,5592
2017-12-10T11:57:13.213Z,5520
2017-12-10T11:58:15.066Z,5528
2017-12-10T11:59:16.945Z,5572
2017-12-10T12:00:18.828Z,5664
2017-12-10T12:01:32.981Z,5848
2017-12-10T12:02:34.863Z,5904
2017-12-10T12:03:36.738Z,5996
2017-12-10T12:04:38.614Z,5872
2017-12-10T12:05:40.442Z,5868
2017-12-10T12:06:42.268Z,5768
2017-12-10T12:07:44.157Z,5808
2017-12-10T12:08:46.046Z,6084
2017-12-10T12:09:47.953Z,6264
2017-12-10T12:11:02.435Z,7064
2017-12-10T12:12:04.310Z,7720
2017-12-10T12:13:06.178Z,7944
2017-12-10T12:14:08.070Z,8060
2017-12-10T12:15:09.906Z,7840
2017-12-10T12:16:12.034Z,7628
2017-12-10T12:17:13.891Z,7304
2017-12-10T12:18:15.780Z,7116
2017-12-10T12:19:18.039Z,7140
2017-12-10T12:20:32.161Z,6820
2017-12-10T12:21:34.373Z,6524
2017-12-10T12:22:36.275Z,6160
2017-12-10T12:23:38.155Z,5860
2017-12-10T12:24:39.980Z,5528
2017-12-10T12:25:41.805Z,5136
2017-12-10T12:26:43.692Z,4972
2017-12-10T12:27:45.570Z,4852
2017-12-10T12:28:47.942Z,4800
2017-12-10T12:30:02.183Z,4664
2017-12-10T12:31:04.068Z,4516
2017-12-10T12:32:05.951Z,4340
2017-12-10T12:33:07.830Z,4172
2017-12-10T12:34:10.006Z,4068
2017-12-10T12:35:11.823Z,3976
2017-12-10T12:36:13.722Z,3872
2017-12-10T12:37:15.640Z,3892
2017-12-10T12:38:17.516Z,3860
2017-12-10T12:39:31.702Z,3868
2017-12-10T12:40:33.591Z,3848
2017-12-10T12:41:35.825Z,3856
2017-12-10T12:42:37.701Z,3832
2017-12-10T12:43:39.547Z,3868
2017-12-10T12:44:41.401Z,3920
2017-12-10T12:45:43.334Z,3952
2017-12-10T12:46:45.536Z,3936
2017-12-10T12:47:47.419Z,3916
2017-12-10T12:49:01.917Z,3872
2017-12-10T12:50:04.129Z,3800
2017-12-10T12:51:06.068Z,3720
2017-12-10T12:52:08.306Z,3608
2017-12-10T12:53:10.452Z,3512
2017-12-10T12:54:12.232Z,3504
2017-12-10T12:55:14.120Z,3484
2017-12-10T12:56:16.007Z,3476
2017-12-10T12:57:17.893Z,3456
2017-12-10T12:58:32.055Z,3388
2017-12-10T12:59:34.327Z,3308
2017-12-10T13:00:36.177Z,3228
2017-12-10T13:01:38.055Z,3144
2017-12-10T13:02:39.872Z,3064
2017-12-10T13:03:41.690Z,2984
2017-12-10T13:04:43.579Z,2912
2017-12-10T13:05:45.456Z,2852
2017-12-10T13:06:47.344Z,2808
2017-12-10T13:08:01.493Z,2768
2017-12-10T13:09:03.370Z,2748
2017-12-10T13:10:05.257Z,2740
2017-12-10T13:11:07.135Z,2736
2017-12-10T13:12:08.963Z,2740
2017-12-10T13:13:10.780Z,2744
2017-12-10T13:14:12.671Z,2696
2017-12-10T13:15:14.547Z,2748
2017-12-10T13:16:16.447Z,2772
2017-12-10T13:17:30.586Z,2772
2017-12-10T13:18:32.464Z,2752
2017-12-10T13:19:34.347Z,2712
2017-12-10T13:20:36.238Z,2668
2017-12-10T13:21:38.065Z,2620
2017-12-10T13:22:40.233Z,2568
2017-12-10T13:23:42.105Z,2528
2017-12-10T13:24:43.982Z,2480
2017-12-10T13:25:45.868Z,2428
2017-12-10T13:27:00.018Z,2384
2017-12-10T13:28:01.895Z,2348
2017-12-10T13:29:03.780Z,2308
2017-12-10T13:30:05.669Z,2256
2017-12-10T13:31:07.485Z,2204
2017-12-10T13:32:09.302Z,2156
2017-12-10T13:33:11.189Z,2096
2017-12-10T13:34:13.061Z,2020
2017-12-10T13:35:14.987Z,1940
2017-12-10T13:36:29.136Z,1848
2017-12-10T13:37:31.017Z,1788
2017-12-10T13:38:32.907Z,1728
2017-12-10T13:39:34.825Z,1696
2017-12-10T13:40:36.638Z,1664
2017-12-10T13:41:38.484Z,1628
2017-12-10T13:42:40.363Z,1600
2017-12-10T13:43:42.248Z,1568
2017-12-10T13:44:44.135Z,1520
2017-12-10T13:45:58.313Z,1444
2017-12-10T13:47:00.157Z,1384
2017-12-10T13:48:02.035Z,1332
2017-12-10T13:49:03.934Z,1292
2017-12-10T13:50:05.725Z,1264
2017-12-10T13:51:07.548Z,1236
2017-12-10T13:52:09.434Z,1208
2017-12-10T13:53:11.321Z,1180
2017-12-10T13:54:13.193Z,1152
2017-12-10T13:55:27.365Z,1136
2017-12-10T13:56:29.236Z,1108
2017-12-10T13:57:31.124Z,1072
2017-12-10T13:58:33.042Z,1040
2017-12-10T13:59:34.825Z,1004
2017-12-10T14:00:36.640Z,976
2017-12-10T14:01:38.516Z,948
2017-12-10T14:02:40.396Z,916
2017-12-10T14:03:42.307Z,884
2017-12-10T14:04:56.490Z,844
2017-12-10T14:05:58.364Z,808
2017-12-10T14:07:00.249Z,780
2017-12-10T14:08:02.130Z,760
2017-12-10T14:09:03.938Z,732
2017-12-10T14:10:05.752Z,704
2017-12-10T14:11:07.623Z,676
2017-12-10T14:12:09.500Z,648
2017-12-10T14:13:11.385Z,632
2017-12-10T14:14:25.530Z,604
2017-12-10T14:15:27.415Z,588
2017-12-10T14:16:29.300Z,568
2017-12-10T14:17:31.186Z,552
2017-12-10T14:18:33.009Z,536
2017-12-10T14:19:34.838Z,516
2017-12-10T14:20:36.720Z,492
2017-12-10T14:21:38.598Z,468
2017-12-10T14:22:40.494Z,444
2017-12-10T14:23:54.683Z,412
2017-12-10T14:24:56.571Z,384
2017-12-10T14:25:58.443Z,352
2017-12-10T14:27:00.316Z,332
2017-12-10T14:28:02.138Z,312
2017-12-10T14:29:03.962Z,296
2017-12-10T14:30:05.856Z,284
2017-12-10T14:31:07.726Z,280
2017-12-10T14:32:09.612Z,272
2017-12-10T14:33:23.769Z,272
2017-12-10T14:34:25.655Z,268
2017-12-10T14:35:27.545Z,272
2017-12-10T14:36:29.429Z,276
2017-12-10T14:37:31.243Z,280
2017-12-10T14:38:33.065Z,288
2017-12-10T14:39:34.964Z,288
2017-12-10T14:40:36.841Z,292
2017-12-10T14:41:38.726Z,288
2017-12-10T14:42:52.920Z,284
2017-12-10T14:43:54.792Z,280